createdAt,value
2022-09-29T00:01:16.141Z,22.08
2022-09-29T00:03:44.361Z,21.58
2022-09-29T00:06:15.562Z,22.58
2022-09-29T00:08:43.952Z,20.45
2022-09-29T00:11:13.863Z,21.85
2022-09-29T00:13:42.377Z,21.45
2022-09-29T00:16:11.633Z,21.77
2022-09-29T00:18:41.501Z,21.88
2022-09-29T00:21:15.401Z,21.00
2022-09-29T00:23:43.937Z,22.77
2022-09-29T00:26:13.884Z,22.80
2022-09-29T00:28:46.622Z,22.60
2022-09-29T00:31:14.950Z,21.88
2022-09-29T00:33:44.616Z,22.92
2022-09-29T00:36:15.202Z,22.42
2022-09-29T00:38:44.782Z,23.48
2022-09-29T00:41:18.258Z,22.27
2022-09-29T00:43:57.090Z,21.77
2022-09-29T00:46:39.561Z,23.45
2022-09-29T00:49:16.310Z,23.50
2022-09-29T00:51:55.767Z,24.05
2022-09-29T00:54:28.866Z,24.15
2022-09-29T00:56:58.436Z,22.90
2022-09-29T00:59:59.043Z,23.77
2022-09-29T01:02:28.421Z,25.50
2022-09-29T01:04:59.589Z,24.27
2022-09-29T01:07:28.792Z,24.40
2022-09-29T01:09:58.578Z,26.00
2022-09-29T01:12:26.845Z,26.33
2022-09-29T01:14:56.080Z,25.27
2022-09-29T01:17:24.820Z,24.98
2022-09-29T01:20:05.040Z,24.17
2022-09-29T01:23:02.774Z,24.55
2022-09-29T01:25:56.088Z,24.65
2022-09-29T01:28:48.842Z,24.55
2022-09-29T01:31:28.720Z,23.27
2022-09-29T01:34:03.779Z,24.30
2022-09-29T01:36:43.739Z,25.67
2022-09-29T01:39:18.544Z,25.17
2022-09-29T01:41:52.874Z,23.85
2022-09-29T01:44:28.059Z,23.70
2022-09-29T01:47:02.538Z,25.17
2022-09-29T01:49:34.181Z,24.10
2022-09-29T01:52:07.808Z,22.27
2022-09-29T01:54:42.404Z,25.85
2022-09-29T01:57:14.881Z,22.08
2022-09-29T01:59:47.326Z,23.23
2022-09-29T02:02:21.952Z,23.15
2022-09-29T02:04:55.710Z,22.23
2022-09-29T02:07:28.643Z,23.63
2022-09-29T02:10:11.181Z,23.52
2022-09-29T02:12:41.281Z,21.98
2022-09-29T02:15:13.808Z,22.98
2022-09-29T02:17:46.707Z,23.38
2022-09-29T02:20:15.418Z,22.77
2022-09-29T02:22:44.049Z,22.42
2022-09-29T02:25:15.286Z,22.27
2022-09-29T02:27:43.690Z,21.35
2022-09-29T02:30:13.718Z,22.40
2022-09-29T02:32:43.411Z,21.75
2022-09-29T02:35:14.405Z,22.52
2022-09-29T02:38:00.570Z,21.85
2022-09-29T02:40:45.858Z,20.85
2022-09-29T02:43:39.464Z,21.52
2022-09-29T02:46:23.420Z,20.98
2022-09-29T02:49:17.220Z,21.42
2022-09-29T02:51:49.948Z,20.98
2022-09-29T02:54:38.002Z,22.17
2022-09-29T02:57:17.993Z,22.50
2022-09-29T02:59:53.380Z,23.42
2022-09-29T03:02:25.834Z,22.70
2022-09-29T03:04:55.715Z,21.95
2022-09-29T03:07:24.066Z,21.63
2022-09-29T03:09:52.308Z,24.52
2022-09-29T03:12:21.054Z,23.23
2022-09-29T03:14:52.594Z,23.20
2022-09-29T03:17:20.848Z,25.10
2022-09-29T03:19:49.137Z,23.38
2022-09-29T03:22:19.234Z,23.70
2022-09-29T03:24:47.612Z,23.75
2022-09-29T03:27:19.946Z,24.15
2022-09-29T03:29:48.370Z,23.15
2022-09-29T03:32:16.650Z,23.40
2022-09-29T03:34:44.848Z,23.63
2022-09-29T03:37:13.310Z,23.73
2022-09-29T03:39:51.788Z,23.73
2022-09-29T03:42:22.813Z,22.05
2022-09-29T03:44:51.057Z,22.73
2022-09-29T03:47:19.394Z,23.30
2022-09-29T03:49:47.731Z,21.70
2022-09-29T03:52:16.316Z,22.85
2022-09-29T03:54:46.092Z,20.73
2022-09-29T03:57:14.305Z,22.35
2022-09-29T03:59:45.591Z,22.00
2022-09-29T04:02:18.413Z,20.38
2022-09-29T04:04:46.864Z,21.80
2022-09-29T04:07:15.194Z,21.42
2022-09-29T04:09:48.104Z,20.48
2022-09-29T04:12:16.790Z,20.25
2022-09-29T04:14:45.043Z,19.55
2022-09-29T04:17:13.290Z,20.38
2022-09-29T04:19:41.575Z,20.25
2022-09-29T04:22:09.920Z,20.35
2022-09-29T04:24:38.762Z,20.25
2022-09-29T04:27:08.365Z,18.90
2022-09-29T04:29:36.633Z,20.38
2022-09-29T04:32:06.021Z,20.08
2022-09-29T04:34:34.788Z,20.88
2022-09-29T04:37:03.488Z,20.52
2022-09-29T04:39:34.199Z,21.23
2022-09-29T04:42:02.427Z,19.95
2022-09-29T04:44:43.662Z,21.17
2022-09-29T04:47:12.037Z,20.80
2022-09-29T04:49:42.005Z,23.10
2022-09-29T04:52:41.281Z,22.67
2022-09-29T04:55:12.405Z,22.25
2022-09-29T04:57:41.270Z,21.70
2022-09-29T05:00:18.946Z,22.55
2022-09-29T05:02:49.809Z,22.17
2022-09-29T05:05:20.843Z,23.23
2022-09-29T05:07:49.707Z,21.83
2022-09-29T05:10:24.555Z,21.40
2022-09-29T05:12:53.563Z,22.40
2022-09-29T05:15:26.182Z,21.02
2022-09-29T05:17:54.603Z,24.02
2022-09-29T05:20:22.932Z,21.25
2022-09-29T05:22:51.840Z,21.83
2022-09-29T05:25:20.111Z,22.77
2022-09-29T05:27:49.112Z,21.85
2022-09-29T05:30:18.082Z,23.05
2022-09-29T05:32:48.257Z,22.75
2022-09-29T05:39:04.689Z,23.73
2022-09-29T05:42:31.467Z,23.85
2022-09-29T05:45:42.461Z,22.42
2022-09-29T05:48:56.094Z,23.10
2022-09-29T05:52:08.044Z,22.77
2022-09-29T05:54:37.689Z,24.98
2022-09-29T06:01:19.107Z,25.15
2022-09-29T06:03:48.471Z,22.80
2022-09-29T06:06:54.820Z,26.08
2022-09-29T06:12:43.271Z,23.35
2022-09-29T06:19:54.121Z,24.10
2022-09-29T06:23:00.766Z,25.83
2022-09-29T06:25:38.840Z,25.90
2022-09-29T06:28:49.282Z,25.63
2022-09-29T06:31:56.944Z,24.42
2022-09-29T06:35:16.856Z,25.42
2022-09-29T06:42:12.863Z,26.15
2022-09-29T06:45:36.872Z,26.85
2022-09-29T06:51:45.413Z,25.17
2022-09-29T06:55:01.672Z,25.38
2022-09-29T06:57:42.197Z,25.85
2022-09-29T07:04:12.028Z,26.65
2022-09-29T07:06:49.075Z,27.15
2022-09-29T07:09:21.155Z,26.45
2022-09-29T07:12:20.377Z,23.92
2022-09-29T07:14:50.102Z,24.45
2022-09-29T07:23:50.556Z,23.10
2022-09-29T07:26:19.524Z,23.80
2022-09-29T07:28:52.140Z,24.38
2022-09-29T07:31:23.266Z,23.25
2022-09-29T07:33:52.999Z,21.30
2022-09-29T07:36:22.362Z,21.27
2022-09-29T07:38:52.483Z,21.77
2022-09-29T07:41:25.366Z,20.63
2022-09-29T07:43:53.614Z,20.10
2022-09-29T07:46:23.352Z,19.27
2022-09-29T07:48:51.566Z,18.40
2022-09-29T07:51:21.251Z,18.67
2022-09-29T07:53:49.514Z,21.60
2022-09-29T07:56:19.613Z,17.95
2022-09-29T07:58:49.582Z,18.35
2022-09-29T08:01:20.121Z,18.52
2022-09-29T08:03:54.570Z,17.17
2022-09-29T08:06:23.588Z,17.95
2022-09-29T08:09:02.332Z,16.60
2022-09-29T08:11:33.246Z,16.60
2022-09-29T08:14:02.571Z,16.30
2022-09-29T08:16:31.215Z,16.63
2022-09-29T08:19:01.492Z,17.00
2022-09-29T08:21:30.228Z,17.77
2022-09-29T08:23:58.741Z,16.70
2022-09-29T08:26:40.796Z,15.88
2022-09-29T08:29:15.739Z,16.30
2022-09-29T08:31:44.994Z,14.50
2022-09-29T08:34:15.696Z,16.38
2022-09-29T08:36:44.582Z,16.65
2022-09-29T08:39:13.377Z,15.30
2022-09-29T08:41:51.788Z,15.02
2022-09-29T08:44:37.789Z,15.55
2022-09-29T08:47:15.416Z,15.07
2022-09-29T08:49:49.059Z,15.00
2022-09-29T08:52:21.602Z,14.90
2022-09-29T08:54:54.539Z,14.43
2022-09-29T08:57:22.794Z,14.80
2022-09-29T08:59:55.689Z,15.20
2022-09-29T09:02:57.083Z,14.48
2022-09-29T09:05:52.594Z,14.02
2022-09-29T09:08:37.382Z,14.25
2022-09-29T09:11:16.894Z,16.10
2022-09-29T09:13:56.815Z,14.60
2022-09-29T09:16:33.760Z,16.35
2022-09-29T09:19:28.544Z,15.35
2022-09-29T09:22:06.026Z,14.88
2022-09-29T09:24:43.247Z,14.82
2022-09-29T09:27:18.442Z,14.38
2022-09-29T09:29:49.150Z,14.38
2022-09-29T09:32:22.004Z,17.38
2022-09-29T09:34:59.588Z,16.42
2022-09-29T09:37:34.477Z,15.50
2022-09-29T09:40:12.814Z,16.52
2022-09-29T09:42:46.243Z,13.88
2022-09-29T09:45:21.545Z,14.57
2022-09-29T09:47:55.387Z,15.77
2022-09-29T09:50:26.443Z,14.27
2022-09-29T09:52:59.791Z,14.60
2022-09-29T09:55:30.298Z,14.52
2022-09-29T09:58:37.151Z,15.18
2022-09-29T10:01:07.239Z,14.20
2022-09-29T10:03:37.569Z,15.05
2022-09-29T10:06:08.757Z,14.90
2022-09-29T10:08:42.245Z,16.00
2022-09-29T10:11:22.919Z,16.95
2022-09-29T10:13:58.236Z,17.52
2022-09-29T10:16:32.948Z,15.32
2022-09-29T10:19:01.285Z,15.27
2022-09-29T10:21:40.585Z,15.63
2022-09-29T10:24:24.139Z,17.05
2022-09-29T10:26:53.809Z,15.80
2022-09-29T10:29:29.541Z,16.52
2022-09-29T10:32:03.766Z,16.60
2022-09-29T10:34:33.617Z,16.90
2022-09-29T10:37:04.019Z,16.45
2022-09-29T10:39:39.071Z,17.90
2022-09-29T10:42:36.191Z,17.23
2022-09-29T10:45:14.045Z,17.58
2022-09-29T10:47:43.243Z,17.15
2022-09-29T10:50:17.453Z,17.08
2022-09-29T10:52:49.231Z,17.98
2022-09-29T10:55:22.055Z,16.15
2022-09-29T10:57:50.850Z,17.85
2022-09-29T11:00:34.442Z,19.45
2022-09-29T11:03:08.620Z,17.75
2022-09-29T11:05:38.049Z,17.90
2022-09-29T11:08:13.256Z,17.33
2022-09-29T11:10:43.586Z,17.38
2022-09-29T11:13:44.311Z,17.98
2022-09-29T11:16:17.549Z,15.93
2022-09-29T11:18:49.270Z,19.30
2022-09-29T11:21:50.171Z,18.38
2022-09-29T11:24:27.351Z,18.27
2022-09-29T11:27:06.304Z,18.40
2022-09-29T11:29:45.514Z,18.10
2022-09-29T11:32:29.883Z,16.08
2022-09-29T11:35:14.574Z,16.38
2022-09-29T11:37:58.931Z,15.98
2022-09-29T11:40:38.983Z,13.77
2022-09-29T11:43:27.526Z,13.07
2022-09-29T11:46:04.301Z,14.13
2022-09-29T11:49:00.373Z,15.10
2022-09-29T11:51:40.050Z,14.32
2022-09-29T11:54:29.365Z,14.27
2022-09-29T11:57:06.163Z,12.85
2022-09-29T11:59:57.461Z,12.18
2022-09-29T12:02:53.082Z,13.52
2022-09-29T12:05:28.316Z,11.00
2022-09-29T12:08:06.808Z,12.20
2022-09-29T12:10:49.688Z,13.18
2022-09-29T12:13:29.781Z,14.35
2022-09-29T12:16:04.158Z,12.45
2022-09-29T12:18:40.324Z,12.07
2022-09-29T12:21:14.090Z,13.32
2022-09-29T12:23:47.874Z,13.38
2022-09-29T12:26:20.471Z,13.35
2022-09-29T12:28:58.559Z,14.57
2022-09-29T12:31:32.821Z,13.05
2022-09-29T12:34:04.332Z,13.60
2022-09-29T12:36:46.376Z,12.20
2022-09-29T12:39:43.465Z,14.30
2022-09-29T12:42:25.429Z,13.10
2022-09-29T12:44:58.773Z,12.88
2022-09-29T12:47:46.865Z,13.15
2022-09-29T12:50:20.923Z,12.88
2022-09-29T12:52:56.241Z,13.95
2022-09-29T12:55:35.644Z,13.55
2022-09-29T12:58:10.104Z,12.23
2022-09-29T13:00:46.775Z,12.57
2022-09-29T13:04:02.761Z,12.35
2022-09-29T13:06:52.159Z,12.45
2022-09-29T13:09:43.408Z,12.80
2022-09-29T13:12:52.958Z,12.48
2022-09-29T13:15:49.860Z,11.68
2022-09-29T13:18:49.040Z,11.93
2022-09-29T13:21:59.535Z,10.93
2022-09-29T13:24:48.830Z,11.65
2022-09-29T13:27:34.140Z,11.82
2022-09-29T13:30:15.056Z,12.52
2022-09-29T13:32:46.788Z,10.77
2022-09-29T13:35:18.460Z,11.80
2022-09-29T13:37:50.790Z,11.20
2022-09-29T13:40:25.344Z,10.55
2022-09-29T13:42:56.019Z,9.88
2022-09-29T13:45:44.988Z,10.52
2022-09-29T13:48:48.299Z,10.02
2022-09-29T13:51:53.212Z,9.68
2022-09-29T13:54:24.647Z,10.02
2022-09-29T13:57:02.421Z,9.65
2022-09-29T13:59:31.563Z,10.00
2022-09-29T14:02:00.820Z,8.90
2022-09-29T14:04:46.243Z,9.13
2022-09-29T14:07:16.208Z,10.25
2022-09-29T14:09:48.956Z,9.65
2022-09-29T14:12:28.897Z,10.40
2022-09-29T14:15:00.846Z,9.75
2022-09-29T14:17:34.591Z,10.38
2022-09-29T14:20:09.854Z,9.27
2022-09-29T14:23:02.162Z,9.88
2022-09-29T14:25:55.674Z,9.00
2022-09-29T14:28:42.147Z,10.57
2022-09-29T14:31:24.610Z,11.23
2022-09-29T14:33:54.454Z,10.70
2022-09-29T14:36:26.882Z,10.05
2022-09-29T14:39:24.593Z,10.80
2022-09-29T14:41:49.032Z,11.60
2022-09-29T14:44:23.857Z,10.30
2022-09-29T14:47:28.077Z,10.65
2022-09-29T14:50:41.877Z,10.15
2022-09-29T14:53:22.946Z,10.48
2022-09-29T14:56:03.911Z,10.05
2022-09-29T14:58:58.723Z,9.50
2022-09-29T15:01:30.372Z,8.77
2022-09-29T15:04:07.124Z,9.90
2022-09-29T15:06:35.481Z,9.88
2022-09-29T15:09:16.965Z,10.20
2022-09-29T15:11:46.531Z,10.10
2022-09-29T15:14:25.354Z,9.65
2022-09-29T15:17:08.350Z,10.63
2022-09-29T15:19:55.877Z,10.25
2022-09-29T15:22:46.140Z,10.75
2022-09-29T15:25:26.627Z,9.27
2022-09-29T15:27:56.101Z,8.95
2022-09-29T15:30:25.651Z,9.98
2022-09-29T15:33:05.297Z,11.38
2022-09-29T15:35:35.913Z,10.45
2022-09-29T15:38:34.610Z,10.93
2022-09-29T15:41:06.846Z,10.85
2022-09-29T15:43:43.071Z,11.23
2022-09-29T15:46:21.540Z,10.00
2022-09-29T15:49:15.866Z,10.20
2022-09-29T15:51:47.270Z,10.88
2022-09-29T15:54:16.282Z,10.73
2022-09-29T15:57:02.044Z,11.65
2022-09-29T15:59:52.719Z,10.00
2022-09-29T16:02:31.805Z,10.20
2022-09-29T16:05:05.438Z,10.30
2022-09-29T16:07:38.484Z,11.00
2022-09-29T16:10:14.985Z,10.60
2022-09-29T16:12:50.730Z,11.73
2022-09-29T16:15:26.184Z,10.50
2022-09-29T16:17:54.905Z,10.07
2022-09-29T16:20:30.197Z,11.43
2022-09-29T16:23:06.800Z,10.98
2022-09-29T16:25:35.368Z,9.98
2022-09-29T16:28:07.522Z,10.27
2022-09-29T16:30:39.830Z,10.88
2022-09-29T16:33:15.849Z,10.70
2022-09-29T16:35:59.824Z,11.00
2022-09-29T16:38:35.721Z,10.63
2022-09-29T16:41:16.310Z,11.23
2022-09-29T16:43:45.482Z,10.95
2022-09-29T16:46:19.546Z,11.45
2022-09-29T16:48:50.626Z,10.95
2022-09-29T16:51:40.122Z,12.00
2022-09-29T16:54:16.761Z,11.23
2022-09-29T16:56:45.585Z,10.88
2022-09-29T16:59:16.502Z,11.82
2022-09-29T17:01:46.353Z,10.75
2022-09-29T17:04:15.311Z,11.63
2022-09-29T17:06:49.473Z,11.98
2022-09-29T17:09:21.957Z,11.50
2022-09-29T17:11:50.513Z,11.93
2022-09-29T17:14:21.633Z,12.57
2022-09-29T17:16:51.733Z,12.18
2022-09-29T17:19:22.438Z,12.50
2022-09-29T17:22:17.431Z,13.30
2022-09-29T17:24:46.118Z,13.13
2022-09-29T17:30:18.807Z,14.27
2022-09-29T17:32:48.026Z,14.30
2022-09-29T17:35:17.444Z,13.07
2022-09-29T17:37:48.580Z,13.68
2022-09-29T17:40:24.082Z,13.70
2022-09-29T17:42:52.788Z,14.68
2022-09-29T17:45:22.354Z,13.75
2022-09-29T17:47:50.676Z,13.50
2022-09-29T17:50:36.945Z,14.45
2022-09-29T17:53:21.488Z,13.80
2022-09-29T17:55:51.921Z,14.40
2022-09-29T17:58:21.239Z,16.10
2022-09-29T18:00:51.643Z,16.17
2022-09-29T18:03:21.993Z,16.92
2022-09-29T18:05:56.399Z,18.73
2022-09-29T18:08:29.626Z,18.52
2022-09-29T18:11:00.698Z,21.30
2022-09-29T18:13:31.424Z,24.63
2022-09-29T18:16:00.901Z,26.23
2022-09-29T18:18:29.563Z,31.27
2022-09-29T18:20:57.964Z,32.65
2022-09-29T18:23:27.965Z,30.33
2022-09-29T18:25:56.810Z,30.13
2022-09-29T18:28:25.637Z,31.55
2022-09-29T18:31:01.439Z,31.08
2022-09-29T18:33:30.469Z,29.30
2022-09-29T18:36:02.025Z,31.02
2022-09-29T18:38:50.671Z,28.27
2022-09-29T18:41:23.227Z,26.13
2022-09-29T18:43:55.073Z,25.67
2022-09-29T18:46:26.099Z,26.80
2022-09-29T18:48:54.699Z,25.73
2022-09-29T18:51:23.085Z,25.52
2022-09-29T18:54:21.690Z,24.85
2022-09-29T18:56:54.662Z,24.52
2022-09-29T18:59:23.335Z,23.63
2022-09-29T19:01:51.853Z,25.45
2022-09-29T19:04:22.453Z,26.30
2022-09-29T19:06:51.324Z,25.30
2022-09-29T19:09:20.092Z,26.77
2022-09-29T19:11:50.455Z,25.95
2022-09-29T19:14:18.911Z,25.25
2022-09-29T19:16:48.578Z,27.17
2022-09-29T19:19:17.810Z,26.15
2022-09-29T19:21:46.292Z,26.50
2022-09-29T19:24:16.441Z,27.13
2022-09-29T19:26:44.919Z,27.58
2022-09-29T19:29:16.443Z,30.27
2022-09-29T19:31:45.294Z,32.10
2022-09-29T19:34:13.787Z,28.70
2022-09-29T19:36:42.514Z,31.88
2022-09-29T19:39:12.970Z,31.90
2022-09-29T19:41:41.804Z,31.15
2022-09-29T19:44:10.741Z,30.25
2022-09-29T19:46:40.564Z,30.83
2022-09-29T19:49:09.350Z,31.02
2022-09-29T19:51:54.060Z,31.17
2022-09-29T19:54:25.238Z,29.67
2022-09-29T19:56:57.627Z,31.40
2022-09-29T19:59:29.209Z,29.25
2022-09-29T20:02:00.750Z,29.13
2022-09-29T20:04:31.322Z,29.40
2022-09-29T20:07:00.384Z,30.63
2022-09-29T20:09:30.049Z,31.77
2022-09-29T20:12:01.787Z,29.77
2022-09-29T20:14:38.144Z,30.13
2022-09-29T20:17:23.036Z,28.08
2022-09-29T20:20:08.877Z,30.00
2022-09-29T20:22:37.795Z,27.95
2022-09-29T20:25:10.386Z,27.20
2022-09-29T20:27:39.967Z,30.75
2022-09-29T20:30:10.293Z,30.80
2022-09-29T20:32:40.254Z,34.30
2022-09-29T20:35:09.512Z,32.50
2022-09-29T20:37:41.846Z,37.80
2022-09-29T20:40:12.509Z,37.47
2022-09-29T20:42:42.118Z,35.13
2022-09-29T20:45:11.648Z,31.05
2022-09-29T20:47:41.857Z,32.95
2022-09-29T20:50:10.618Z,31.65
2022-09-29T20:52:39.120Z,32.05
2022-09-29T20:55:08.470Z,30.33
2022-09-29T20:57:42.787Z,34.00
2022-09-29T21:00:14.640Z,34.30
2022-09-29T21:03:01.366Z,33.22
2022-09-29T21:05:29.957Z,30.20
2022-09-29T21:07:58.386Z,30.60
2022-09-29T21:10:27.995Z,31.90
2022-09-29T21:12:56.686Z,31.33
2022-09-29T21:15:25.162Z,32.70
2022-09-29T21:17:53.653Z,31.75
2022-09-29T21:20:23.543Z,30.33
2022-09-29T21:22:52.569Z,30.63
2022-09-29T21:25:21.235Z,30.30
2022-09-29T21:27:52.335Z,29.77
2022-09-29T21:30:20.867Z,30.20
2022-09-29T21:32:49.610Z,28.88
2022-09-29T21:35:18.461Z,28.50
2022-09-29T21:38:04.154Z,30.75
2022-09-29T21:40:34.449Z,29.23
2022-09-29T21:43:02.877Z,27.05
2022-09-29T21:45:32.216Z,29.50
2022-09-29T21:48:10.837Z,29.40
2022-09-29T21:51:02.733Z,28.45
2022-09-29T21:53:33.164Z,27.75
2022-09-29T21:56:02.893Z,27.40
2022-09-29T21:58:31.600Z,27.50
2022-09-29T22:01:00.299Z,28.23
2022-09-29T22:03:32.676Z,26.42
2022-09-29T22:06:02.111Z,27.23
2022-09-29T22:08:33.296Z,25.08
2022-09-29T22:11:01.756Z,26.65
2022-09-29T22:13:30.431Z,24.55
2022-09-29T22:16:04.785Z,25.25
2022-09-29T22:18:41.545Z,25.25
2022-09-29T22:21:13.033Z,25.90
2022-09-29T22:24:11.419Z,26.55
2022-09-29T22:26:42.265Z,26.98
2022-09-29T22:29:10.806Z,24.33
2022-09-29T22:31:40.763Z,25.52
2022-09-29T22:34:11.262Z,24.60
2022-09-29T22:36:40.194Z,26.40
2022-09-29T22:39:08.895Z,24.58
2022-09-29T22:41:39.892Z,25.58
2022-09-29T22:44:38.245Z,23.92
2022-09-29T22:47:08.131Z,24.55
2022-09-29T22:49:42.141Z,27.25
2022-09-29T22:52:10.653Z,27.00
2022-09-29T22:54:39.302Z,25.60
2022-09-29T22:57:07.891Z,25.70
2022-09-29T22:59:36.406Z,28.60
2022-09-29T23:02:05.444Z,28.30
2022-09-29T23:04:35.302Z,27.42
2022-09-29T23:07:04.493Z,28.92
2022-09-29T23:09:33.038Z,31.23
2022-09-29T23:12:02.102Z,31.63
2022-09-29T23:14:30.528Z,31.38
2022-09-29T23:17:06.865Z,34.20
2022-09-29T23:19:36.943Z,34.95
2022-09-29T23:22:05.656Z,33.92
2022-09-29T23:24:34.153Z,32.35
2022-09-29T23:27:02.798Z,34.53
2022-09-29T23:29:31.407Z,32.35
2022-09-29T23:32:00.116Z,31.88
2022-09-29T23:34:29.108Z,32.85
2022-09-29T23:36:59.658Z,32.45
2022-09-29T23:39:27.673Z,30.77
2022-09-29T23:41:56.572Z,31.45
2022-09-29T23:44:28.817Z,29.20
2022-09-29T23:46:57.975Z,32.40
2022-09-29T23:49:29.295Z,32.65
2022-09-29T23:52:02.381Z,33.42
2022-09-29T23:54:30.831Z,34.05
2022-09-29T23:56:59.887Z,41.03
2022-09-29T23:59:28.396Z,41.25
